Time;durP1;ratioP1;P1;durP2;ratioP2;P2;SDS_P1;SDS_P2;PMS_P1;PMS_P2;Temp;Humidity;BMP_temperature;BMP_pressure;BME280_temperature;BME280_humidity;BME280_pressure;Samples;Min_cycle;Max_cycle;Signal;HPM_P1;HPM_P2
2023/04/16 00:01:36;;;;;;;4.65;1.63;;;;;;;;;;10515668;28;20266;-75
2023/04/16 00:06:40;;;;;;;2.22;1.27;;;;;;;;;;10505562;28;20044;-76
2023/04/16 00:11:43;;;;;;;;;;;;;;;;;;10523792;28;20032;-76
2023/04/16 00:16:45;;;;;;;5.40;2.70;;;;;;;;;;10512860;28;19970;-76
2023/04/16 00:21:50;;;;;;;5.00;2.40;;;;;;;;;;10502470;28;20449;-75
2023/04/16 00:26:53;;;;;;;3.70;2.10;;;;;;;;;;10512756;28;20188;-76
2023/04/16 00:31:56;;;;;;;5.25;2.50;;;;;;;;;;10507769;28;20616;-75
2023/04/16 00:37:00;;;;;;;4.45;2.38;;;;;;;;;;10516507;28;20037;-75
2023/04/16 00:42:03;;;;;;;7.07;3.10;;;;;;;;;;10506641;28;20036;-75
2023/04/16 00:47:07;;;;;;;5.65;3.00;;;;;;;;;;10501401;28;20047;-75
2023/04/16 00:52:13;;;;;;;6.82;3.05;;;;;;;;;;10506016;28;20048;-75
2023/04/16 00:57:19;;;;;;;5.15;2.28;;;;;;;;;;10508552;28;20128;-75
2023/04/16 01:02:22;;;;;;;6.85;3.25;;;;;;;;;;10521758;28;20039;-75
2023/04/16 01:07:27;;;;;;;3.72;1.77;;;;;;;;;;10519611;28;20040;-77
2023/04/16 01:12:30;;;;;;;6.50;3.35;;;;;;;;;;10527974;28;20040;-76
2023/04/16 01:17:32;;;;;;;6.65;3.25;;;;;;;;;;10520771;28;20059;-77
2023/04/16 01:22:45;;;;;;;6.32;2.97;;;;;;;;;;10519346;28;20032;-76
2023/04/16 01:27:49;;;;;;;6.63;2.83;;;;;;;;;;10530596;28;20044;-77
2023/04/16 01:32:53;;;;;;;5.00;2.67;;;;;;;;;;10528530;28;20305;-77
2023/04/16 01:37:57;;;;;;;3.90;1.90;;;;;;;;;;10545177;28;20036;-76
2023/04/16 01:43:00;;;;;;;5.45;2.40;;;;;;;;;;10534444;28;20044;-75
2023/04/16 01:48:03;;;;;;;4.07;2.05;;;;;;;;;;10528290;28;20043;-77
2023/04/16 01:53:08;;;;;;;4.45;2.22;;;;;;;;;;10525683;28;20421;-77
2023/04/16 01:58:13;;;;;;;3.10;1.30;;;;;;;;;;10517084;28;20143;-73
2023/04/16 02:03:17;;;;;;;4.82;2.45;;;;;;;;;;10519143;28;20036;-76
2023/04/16 02:08:22;;;;;;;2.65;1.63;;;;;;;;;;10517916;28;20127;-74
2023/04/16 02:13:25;;;;;;;5.35;2.75;;;;;;;;;;10489975;28;20036;-76
2023/04/16 02:18:36;;;;;;;7.47;2.92;;;;;;;;;;10490246;28;20603;-75
2023/04/16 02:23:40;;;;;;;3.92;1.67;;;;;;;;;;10488427;28;20049;-76
2023/04/16 02:28:43;;;;;;;4.07;1.90;;;;;;;;;;10492310;28;20131;-75
2023/04/16 02:33:46;;;;;;;4.90;2.47;;;;;;;;;;10488429;28;20497;-77
2023/04/16 02:38:50;;;;;;;5.07;2.67;;;;;;;;;;10490842;28;20511;-75
2023/04/16 02:43:54;;;;;;;6.75;3.38;;;;;;;;;;10482145;28;20411;-75
2023/04/16 02:48:56;;;;;;;8.35;3.47;;;;;;;;;;10484409;28;20052;-76
2023/04/16 02:54:01;;;;;;;10.90;3.93;;;;;;;;;;10490373;28;20032;-75
2023/04/16 02:59:04;;;;;;;3.17;1.48;;;;;;;;;;10485986;28;20393;-76
2023/04/16 03:04:07;;;;;;;8.35;3.85;;;;;;;;;;10485220;28;20734;-74
2023/04/16 03:09:11;;;;;;;9.10;4.13;;;;;;;;;;10494131;28;20047;-75
2023/04/16 03:14:14;;;;;;;7.07;3.10;;;;;;;;;;10494047;28;20032;-74
2023/04/16 03:19:17;;;;;;;9.02;3.55;;;;;;;;;;10494996;28;20049;-74
2023/04/16 03:24:28;;;;;;;4.05;2.53;;;;;;;;;;10492655;28;20173;-75
2023/04/16 03:29:31;;;;;;;6.10;3.17;;;;;;;;;;10497302;28;20441;-74
2023/04/16 03:34:40;;;;;;;6.88;3.03;;;;;;;;;;10492887;28;20332;-74
2023/04/16 03:39:44;;;;;;;5.68;2.03;;;;;;;;;;10494960;28;20036;-74
2023/04/16 03:44:47;;;;;;;6.07;2.97;;;;;;;;;;10491464;28;20055;-74
2023/04/16 03:49:50;;;;;;;1.90;1.00;;;;;;;;;;10493803;28;20040;-76
2023/04/16 03:54:55;;;;;;;3.10;1.38;;;;;;;;;;10496644;28;20068;-74
2023/04/16 03:59:59;;;;;;;7.20;3.28;;;;;;;;;;10494868;28;20044;-75
2023/04/16 04:05:03;;;;;;;5.93;2.35;;;;;;;;;;10528589;27;20052;-74
2023/04/16 04:10:09;;;;;;;5.80;2.58;;;;;;;;;;10502107;28;20451;-73
2023/04/16 04:15:12;;;;;;;5.57;2.75;;;;;;;;;;10499045;28;20425;-72
2023/04/16 04:20:15;;;;;;;5.60;2.30;;;;;;;;;;10498301;28;20401;-74
2023/04/16 04:25:19;;;;;;;3.28;1.70;;;;;;;;;;10497298;28;20044;-74
2023/04/16 04:30:22;;;;;;;;;;;;;;;;;;10497812;28;20345;-75
2023/04/16 04:35:25;;;;;;;4.18;2.25;;;;;;;;;;10512236;28;19942;-75
2023/04/16 04:40:29;;;;;;;6.18;3.15;;;;;;;;;;10491271;28;20581;-74
2023/04/16 04:45:32;;;;;;;5.18;2.72;;;;;;;;;;10491042;28;22538;-72
2023/04/16 04:50:36;;;;;;;5.45;2.60;;;;;;;;;;10491556;28;20460;-76
2023/04/16 04:55:41;;;;;;;4.63;2.00;;;;;;;;;;10495685;28;20135;-75
2023/04/16 05:00:44;;;;;;;8.50;3.60;;;;;;;;;;10495142;28;20132;-74
2023/04/16 05:05:47;;;;;;;3.65;1.38;;;;;;;;;;10493373;28;20052;-75
2023/04/16 05:10:52;;;;;;;3.00;1.10;;;;;;;;;;10492493;28;20037;-73
2023/04/16 05:15:55;;;;;;;4.55;2.17;;;;;;;;;;10491035;28;20052;-73
2023/04/16 05:20:58;;;;;;;4.18;2.05;;;;;;;;;;10491140;28;20123;-74
2023/04/16 05:26:03;;;;;;;5.60;2.60;;;;;;;;;;10490444;28;20102;-75
2023/04/16 05:31:06;;;;;;;8.40;3.40;;;;;;;;;;10489066;28;20119;-75
2023/04/16 05:36:09;;;;;;;4.65;2.55;;;;;;;;;;10486156;28;20114;-75
2023/04/16 05:41:13;;;;;;;6.85;2.78;;;;;;;;;;10488188;28;20041;-74
2023/04/16 05:46:15;;;;;;;;;;;;;;;;;;10489958;28;20048;-75
2023/04/16 05:51:18;;;;;;;3.25;1.45;;;;;;;;;;10488604;28;20401;-74
2023/04/16 05:56:22;;;;;;;4.80;2.37;;;;;;;;;;10485931;28;20040;-74
2023/04/16 06:01:25;;;;;;;4.05;2.30;;;;;;;;;;10487178;28;20579;-74
2023/04/16 06:06:29;;;;;;;3.50;1.03;;;;;;;;;;10486311;28;20048;-75
2023/04/16 06:11:33;;;;;;;1.33;0.70;;;;;;;;;;10487825;28;20044;-75
2023/04/16 06:16:38;;;;;;;1.50;1.08;;;;;;;;;;10488659;28;20040;-75
2023/04/16 06:21:42;;;;;;;1.98;1.15;;;;;;;;;;10486610;28;21338;-74
2023/04/16 06:26:46;;;;;;;1.42;0.90;;;;;;;;;;10488382;28;20554;-76
2023/04/16 06:31:50;;;;;;;1.85;1.30;;;;;;;;;;10490164;28;20036;-75
2023/04/16 06:36:52;;;;;;;0.68;0.57;;;;;;;;;;10487925;28;20488;-73
2023/04/16 06:41:57;;;;;;;1.35;1.05;;;;;;;;;;10492667;28;20048;-75
2023/04/16 06:47:00;;;;;;;1.00;0.57;;;;;;;;;;10499069;28;20059;-75
2023/04/16 06:52:03;;;;;;;1.27;0.90;;;;;;;;;;10504426;28;20165;-75
2023/04/16 06:57:10;;;;;;;0.70;0.52;;;;;;;;;;10509924;28;20040;-75
2023/04/16 07:02:13;;;;;;;0.52;0.25;;;;;;;;;;10503112;28;20516;-76
2023/04/16 07:07:17;;;;;;;;;;;;;;;;;;10502320;28;20071;-74
2023/04/16 07:12:22;;;;;;;0.40;0.40;;;;;;;;;;10545666;27;20292;-74
2023/04/16 07:17:25;;;;;;;0.20;0.20;;;;;;;;;;10515582;28;20163;-74
2023/04/16 07:22:27;;;;;;;1.30;1.20;;;;;;;;;;10514632;28;20766;-74
2023/04/16 07:27:32;;;;;;;0.55;0.55;;;;;;;;;;10511040;28;20036;-75
2023/04/16 07:32:35;;;;;;;0.90;0.70;;;;;;;;;;10503363;28;20048;-73
2023/04/16 07:37:37;;;;;;;0.50;0.50;;;;;;;;;;10499684;28;20054;-75
2023/04/16 07:42:43;;;;;;;0.57;0.30;;;;;;;;;;10508292;28;20048;-75
2023/04/16 07:47:46;;;;;;;0.35;0.35;;;;;;;;;;10497082;28;20421;-75
2023/04/16 07:52:49;;;;;;;0.30;0.30;;;;;;;;;;10492045;28;20047;-76
2023/04/16 07:57:53;;;;;;;0.40;0.40;;;;;;;;;;10490533;28;20040;-73
2023/04/16 08:02:56;;;;;;;0.20;0.20;;;;;;;;;;10491196;28;20068;-74
2023/04/16 08:07:59;;;;;;;0.63;0.57;;;;;;;;;;10475933;28;20046;-74
2023/04/16 08:13:03;;;;;;;0.30;0.30;;;;;;;;;;10489532;28;20408;-75
2023/04/16 08:18:11;;;;;;;0.52;0.40;;;;;;;;;;10491292;28;20512;-74
2023/04/16 08:23:14;;;;;;;0.25;0.25;;;;;;;;;;10490042;28;20032;-73
2023/04/16 08:28:19;;;;;;;0.43;0.38;;;;;;;;;;10490051;28;20119;-75
2023/04/16 08:33:23;;;;;;;0.30;0.30;;;;;;;;;;10497319;28;20342;-75
2023/04/16 08:38:26;;;;;;;1.63;0.98;;;;;;;;;;10491439;28;20040;-76
2023/04/16 08:43:33;;;;;;;1.00;0.50;;;;;;;;;;10494879;28;20177;-76
2023/04/16 08:48:37;;;;;;;0.52;0.40;;;;;;;;;;10491281;28;20470;-76
2023/04/16 08:53:43;;;;;;;0.32;0.32;;;;;;;;;;10490489;28;20032;-76
2023/04/16 08:58:48;;;;;;;1.35;0.60;;;;;;;;;;10488986;28;20476;-76
2023/04/16 09:03:53;;;;;;;1.55;0.40;;;;;;;;;;10485770;28;20066;-75
2023/04/16 09:08:57;;;;;;;0.60;0.30;;;;;;;;;;10488744;28;20397;-77
2023/04/16 09:14:03;;;;;;;0.90;0.50;;;;;;;;;;10486234;28;20418;-77
2023/04/16 09:19:06;;;;;;;0.40;0.40;;;;;;;;;;10493206;28;20047;-77
2023/04/16 09:24:09;;;;;;;0.40;0.40;;;;;;;;;;10500914;28;20093;-76
2023/04/16 09:29:32;;;;;;;1.30;0.38;;;;;;;;;;10532345;28;20120;-77
2023/04/16 09:34:53;;;;;;;0.45;0.43;;;;;;;;;;10522383;28;20032;-77
2023/04/16 09:39:57;;;;;;;0.85;0.30;;;;;;;;;;10523789;28;20086;-76
2023/04/16 09:45:02;;;;;;;0.20;0.20;;;;;;;;;;10531045;28;20045;-76
2023/04/16 09:50:08;;;;;;;0.50;0.50;;;;;;;;;;10540375;28;20630;-76
2023/04/16 09:55:14;;;;;;;0.73;0.43;;;;;;;;;;10531671;28;20038;-76
2023/04/16 10:00:29;;;;;;;12.48;4.78;;;;;;;;;;10527336;28;20059;-76
2023/04/16 10:05:33;;;;;;;0.60;0.47;;;;;;;;;;10524740;28;20119;-78
2023/04/16 10:10:36;;;;;;;3.67;0.65;;;;;;;;;;10513340;28;20060;-75
2023/04/16 10:15:46;;;;;;;0.40;0.40;;;;;;;;;;10522414;28;20036;-77
2023/04/16 10:20:49;;;;;;;0.30;0.30;;;;;;;;;;10518924;28;20488;-75
2023/04/16 10:25:53;;;;;;;0.68;0.30;;;;;;;;;;10516281;28;20057;-76
2023/04/16 10:31:01;;;;;;;0.57;0.50;;;;;;;;;;10517241;28;20040;-77
2023/04/16 10:36:08;;;;;;;0.57;0.35;;;;;;;;;;10520121;28;20101;-76
2023/04/16 10:41:11;;;;;;;0.93;0.60;;;;;;;;;;10516834;28;20042;-77
2023/04/16 10:46:15;;;;;;;;;;;;;;;;;;10518932;28;20126;-77
2023/04/16 10:51:27;;;;;;;0.30;0.30;;;;;;;;;;10521247;28;20011;-78
2023/04/16 10:56:32;;;;;;;0.20;0.20;;;;;;;;;;10512614;28;20036;-78
2023/04/16 11:01:35;;;;;;;;;;;;;;;;;;10526206;28;20036;-77
2023/04/16 11:06:39;;;;;;;0.90;0.45;;;;;;;;;;10525002;28;19920;-76
2023/04/16 11:11:44;;;;;;;0.70;0.60;;;;;;;;;;10520181;28;20403;-77
2023/04/16 11:16:47;;;;;;;4.90;0.60;;;;;;;;;;10521443;28;20040;-77
2023/04/16 11:21:52;;;;;;;0.20;0.20;;;;;;;;;;10521541;28;20048;-77
2023/04/16 11:26:55;;;;;;;1.05;0.85;;;;;;;;;;10524628;28;20047;-77
2023/04/16 11:31:58;;;;;;;0.68;0.68;;;;;;;;;;10528730;28;20081;-77
2023/04/16 11:37:03;;;;;;;0.43;0.40;;;;;;;;;;10528331;28;20048;-77
2023/04/16 11:42:06;;;;;;;0.73;0.73;;;;;;;;;;10546022;28;20071;-78
2023/04/16 11:47:12;;;;;;;0.60;0.60;;;;;;;;;;10546546;28;20057;-76
2023/04/16 11:52:24;;;;;;;0.63;0.52;;;;;;;;;;10564624;28;20048;-78
2023/04/16 11:57:28;;;;;;;0.68;0.68;;;;;;;;;;10556532;28;20097;-77
2023/04/16 12:02:35;;;;;;;1.02;0.68;;;;;;;;;;10542154;28;20290;-76
2023/04/16 12:07:48;;;;;;;0.68;0.60;;;;;;;;;;10523473;28;20137;-76
2023/04/16 12:12:52;;;;;;;0.50;0.40;;;;;;;;;;10514269;28;20044;-76
2023/04/16 12:18:06;;;;;;;0.95;0.57;;;;;;;;;;10533228;28;20044;-77
2023/04/16 12:23:12;;;;;;;0.60;0.60;;;;;;;;;;10503114;28;20075;-78
2023/04/16 12:28:15;;;;;;;1.27;0.88;;;;;;;;;;10513976;28;20061;-77
2023/04/16 12:33:21;;;;;;;0.70;0.65;;;;;;;;;;10515559;28;20122;-76
2023/04/16 12:38:35;;;;;;;1.05;0.65;;;;;;;;;;10507930;28;20140;-74
2023/04/16 12:43:41;;;;;;;1.35;0.65;;;;;;;;;;10509184;28;20370;-77
2023/04/16 12:49:03;;;;;;;0.50;0.30;;;;;;;;;;10521865;28;20106;-76
2023/04/16 12:54:10;;;;;;;1.00;0.60;;;;;;;;;;10507214;28;20523;-76
2023/04/16 12:59:16;;;;;;;1.00;0.85;;;;;;;;;;10519238;28;20063;-76
2023/04/16 13:04:19;;;;;;;1.75;0.85;;;;;;;;;;10515511;28;20032;-76
2023/04/16 13:09:27;;;;;;;1.42;0.80;;;;;;;;;;10524710;28;20127;-78
2023/04/16 13:14:30;;;;;;;0.70;0.70;;;;;;;;;;10520216;28;20068;-76
2023/04/16 13:19:53;;;;;;;1.02;0.77;;;;;;;;;;10508752;28;20056;-76
2023/04/16 13:24:57;;;;;;;1.02;0.75;;;;;;;;;;10505371;28;20069;-75
2023/04/16 13:30:04;;;;;;;2.03;1.38;;;;;;;;;;10509715;28;20282;-76
2023/04/16 13:35:26;;;;;;;1.20;0.93;;;;;;;;;;10508079;28;20489;-75
2023/04/16 13:40:31;;;;;;;2.73;0.93;;;;;;;;;;10512159;28;20138;-75
2023/04/16 13:45:37;;;;;;;0.80;0.60;;;;;;;;;;10504984;28;20381;-75
2023/04/16 13:50:40;;;;;;;1.23;0.68;;;;;;;;;;10504328;28;20043;-77
2023/04/16 13:55:45;;;;;;;2.20;1.40;;;;;;;;;;10499105;28;20042;-77
2023/04/16 14:00:48;;;;;;;1.45;0.95;;;;;;;;;;10500214;28;20036;-76
2023/04/16 14:05:54;;;;;;;0.90;0.90;;;;;;;;;;10512016;28;20090;-76
2023/04/16 14:11:11;;;;;;;0.98;0.80;;;;;;;;;;10505815;28;20120;-77
2023/04/16 14:16:24;;;;;;;0.40;0.40;;;;;;;;;;10512491;28;20151;-76
2023/04/16 14:21:30;;;;;;;0.73;0.40;;;;;;;;;;10516638;28;20043;-76
2023/04/16 14:26:35;;;;;;;0.50;0.50;;;;;;;;;;10524508;28;20051;-78
2023/04/16 14:31:40;;;;;;;1.77;0.80;;;;;;;;;;10513385;28;20048;-76
2023/04/16 14:36:53;;;;;;;1.88;0.82;;;;;;;;;;10493129;28;20376;-76
2023/04/16 14:41:58;;;;;;;1.15;1.05;;;;;;;;;;10516169;28;20409;-76
2023/04/16 14:47:01;;;;;;;0.73;0.40;;;;;;;;;;10514502;28;20071;-73
2023/04/16 14:52:04;;;;;;;1.27;0.90;;;;;;;;;;10532367;28;20032;-76
2023/04/16 14:57:09;;;;;;;0.82;0.52;;;;;;;;;;10479819;28;20564;-75
2023/04/16 15:02:13;;;;;;;3.05;1.48;;;;;;;;;;10519290;28;20158;-74
2023/04/16 15:07:16;;;;;;;1.27;0.80;;;;;;;;;;10537413;28;20044;-76
2023/04/16 15:12:20;;;;;;;0.50;0.50;;;;;;;;;;10532311;28;20044;-75
2023/04/16 15:17:24;;;;;;;1.85;0.55;;;;;;;;;;10544836;28;20054;-75
2023/04/16 15:22:27;;;;;;;0.70;0.70;;;;;;;;;;10555329;28;20036;-74
2023/04/16 15:27:31;;;;;;;1.75;1.23;;;;;;;;;;10538568;28;20143;-77
2023/04/16 15:32:34;;;;;;;0.68;0.68;;;;;;;;;;10516789;28;20066;-77
2023/04/16 15:37:37;;;;;;;0.43;0.43;;;;;;;;;;10512578;28;20040;-76
2023/04/16 15:42:43;;;;;;;2.08;1.38;;;;;;;;;;10515717;28;20123;-75
2023/04/16 15:47:49;;;;;;;1.05;0.80;;;;;;;;;;10510157;28;20547;-76
2023/04/16 15:52:53;;;;;;;1.23;0.93;;;;;;;;;;10508462;28;20508;-75
2023/04/16 15:58:02;;;;;;;1.05;0.70;;;;;;;;;;10514603;28;20038;-77
2023/04/16 16:03:14;;;;;;;4.00;2.08;;;;;;;;;;10514887;28;20110;-77
2023/04/16 16:08:19;;;;;;;1.77;1.20;;;;;;;;;;10520935;28;20044;-78
2023/04/16 16:13:29;;;;;;;1.35;0.95;;;;;;;;;;10507331;28;20131;-75
2023/04/16 16:18:33;;;;;;;2.28;1.33;;;;;;;;;;10525241;28;20055;-76
2023/04/16 16:23:36;;;;;;;1.48;0.85;;;;;;;;;;10517679;28;20117;-76
2023/04/16 16:28:42;;;;;;;0.75;0.55;;;;;;;;;;10519281;28;20131;-77
2023/04/16 16:33:45;;;;;;;2.67;0.85;;;;;;;;;;10512681;28;20493;-76
2023/04/16 16:38:50;;;;;;;1.33;0.85;;;;;;;;;;10508014;28;20105;-76
2023/04/16 16:43:55;;;;;;;;;;;;;;;;;;10510264;28;20568;-76
2023/04/16 16:49:00;;;;;;;1.98;1.27;;;;;;;;;;10516432;28;19955;-76
2023/04/16 16:54:03;;;;;;;1.10;1.00;;;;;;;;;;10514179;28;20122;-77
2023/04/16 16:59:07;;;;;;;0.47;0.40;;;;;;;;;;10519422;28;20043;-77
2023/04/16 17:04:13;;;;;;;1.85;1.27;;;;;;;;;;10514396;28;20573;-76
2023/04/16 17:09:16;;;;;;;3.83;1.55;;;;;;;;;;10515392;28;20791;-76
2023/04/16 17:14:20;;;;;;;0.65;0.43;;;;;;;;;;10562234;27;20063;-76
2023/04/16 17:19:25;;;;;;;1.50;0.75;;;;;;;;;;10563444;27;20043;-76
2023/04/16 17:24:28;;;;;;;1.00;0.68;;;;;;;;;;10571633;27;20089;-76
2023/04/16 17:29:32;;;;;;;0.73;0.60;;;;;;;;;;10570692;27;20273;-77
2023/04/16 17:34:37;;;;;;;0.60;0.52;;;;;;;;;;10561661;27;20097;-75
2023/04/16 17:39:46;;;;;;;1.67;0.85;;;;;;;;;;10556577;27;20043;-75
2023/04/16 17:44:52;;;;;;;1.00;0.70;;;;;;;;;;10571254;27;20506;-77
2023/04/16 17:50:07;;;;;;;0.88;0.68;;;;;;;;;;10549220;27;20040;-76
2023/04/16 17:55:10;;;;;;;0.45;0.45;;;;;;;;;;10550153;27;20057;-76
2023/04/16 18:00:15;;;;;;;3.45;0.90;;;;;;;;;;10567467;28;20115;-76
2023/04/16 18:05:20;;;;;;;1.08;0.75;;;;;;;;;;10562798;27;20468;-75
2023/04/16 18:10:23;;;;;;;2.47;1.35;;;;;;;;;;10561383;27;20480;-76
2023/04/16 18:15:27;;;;;;;11.88;4.20;;;;;;;;;;10575992;27;20088;-76
2023/04/16 18:20:32;;;;;;;2.67;1.25;;;;;;;;;;10561681;27;20059;-75
2023/04/16 18:25:35;;;;;;;7.32;2.85;;;;;;;;;;10572201;27;20032;-77
2023/04/16 18:30:38;;;;;;;1.42;0.93;;;;;;;;;;10569327;28;20293;-75
2023/04/16 18:35:43;;;;;;;0.93;0.50;;;;;;;;;;10550346;28;20136;-76
2023/04/16 18:40:48;;;;;;;0.55;0.55;;;;;;;;;;10559297;28;20080;-75
2023/04/16 18:45:51;;;;;;;1.75;1.10;;;;;;;;;;10560378;28;20047;-76
2023/04/16 18:50:56;;;;;;;5.05;1.50;;;;;;;;;;10564436;28;20063;-77
2023/04/16 18:55:59;;;;;;;1.27;1.17;;;;;;;;;;10559682;28;20032;-76
2023/04/16 19:01:04;;;;;;;0.45;0.45;;;;;;;;;;10559996;28;20027;-76
2023/04/16 19:06:18;;;;;;;2.23;1.20;;;;;;;;;;10569701;28;20149;-76
2023/04/16 19:11:22;;;;;;;2.42;1.45;;;;;;;;;;10547647;28;20070;-77
2023/04/16 19:16:25;;;;;;;0.82;0.43;;;;;;;;;;10564173;28;20123;-78
2023/04/16 19:21:29;;;;;;;2.17;1.00;;;;;;;;;;10566486;28;20035;-75
2023/04/16 19:26:32;;;;;;;3.80;1.17;;;;;;;;;;10567689;28;20172;-75
2023/04/16 19:31:35;;;;;;;2.20;1.13;;;;;;;;;;10541298;28;20059;-78
2023/04/16 19:36:40;;;;;;;2.08;1.40;;;;;;;;;;10547332;28;20093;-76
2023/04/16 19:41:43;;;;;;;4.28;1.50;;;;;;;;;;10550165;28;20135;-77
2023/04/16 19:46:46;;;;;;;3.75;1.80;;;;;;;;;;10545834;28;20681;-76
2023/04/16 19:51:51;;;;;;;2.00;0.95;;;;;;;;;;10565276;27;20051;-76
2023/04/16 19:56:54;;;;;;;;;;;;;;;;;;10557714;27;20040;-75
2023/04/16 20:01:57;;;;;;;2.55;1.45;;;;;;;;;;10568941;27;20333;-75
2023/04/16 20:07:01;;;;;;;7.55;3.65;;;;;;;;;;10560998;27;20054;-75
2023/04/16 20:12:04;;;;;;;3.88;1.77;;;;;;;;;;10543184;28;20059;-75
2023/04/16 20:17:08;;;;;;;1.50;1.17;;;;;;;;;;10541148;28;20135;-74
2023/04/16 20:22:13;;;;;;;3.10;1.30;;;;;;;;;;10552712;27;20062;-75
2023/04/16 20:27:18;;;;;;;2.10;1.48;;;;;;;;;;10536910;27;20052;-75
2023/04/16 20:32:20;;;;;;;1.85;0.95;;;;;;;;;;10573292;27;20062;-77
2023/04/16 20:37:27;;;;;;;1.15;1.05;;;;;;;;;;10573438;27;20127;-77
2023/04/16 20:42:31;;;;;;;2.15;1.33;;;;;;;;;;10552750;27;20048;-78
2023/04/16 20:47:34;;;;;;;1.10;0.82;;;;;;;;;;10571479;27;20360;-78
2023/04/16 20:52:38;;;;;;;1.17;0.87;;;;;;;;;;10551529;28;20114;-78
2023/04/16 20:57:42;;;;;;;2.58;1.33;;;;;;;;;;10552733;27;21027;-78
2023/04/16 21:02:45;;;;;;;2.60;1.30;;;;;;;;;;10560148;27;20032;-78
2023/04/16 21:07:49;;;;;;;2.47;1.67;;;;;;;;;;10560321;27;20140;-78
2023/04/16 21:12:54;;;;;;;2.22;1.20;;;;;;;;;;10552803;27;20507;-77
2023/04/16 21:17:56;;;;;;;2.92;1.63;;;;;;;;;;10559177;27;20604;-78
2023/04/16 21:23:01;;;;;;;2.53;1.20;;;;;;;;;;10559893;27;20035;-77
2023/04/16 21:28:04;;;;;;;4.13;1.70;;;;;;;;;;10549806;28;20035;-77
2023/04/16 21:33:06;;;;;;;4.80;1.90;;;;;;;;;;10538437;27;20047;-77
2023/04/16 21:38:11;;;;;;;2.05;1.40;;;;;;;;;;10551869;27;20409;-77
2023/04/16 21:43:14;;;;;;;2.78;1.13;;;;;;;;;;10545668;28;20043;-77
2023/04/16 21:48:17;;;;;;;1.83;1.15;;;;;;;;;;10548252;27;20043;-77
2023/04/16 21:53:21;;;;;;;2.00;0.83;;;;;;;;;;10541548;27;20075;-77
2023/04/16 21:58:25;;;;;;;2.65;1.60;;;;;;;;;;10548519;27;20043;-76
2023/04/16 22:03:30;;;;;;;3.47;1.80;;;;;;;;;;10521451;28;20040;-75
2023/04/16 22:08:35;;;;;;;1.75;1.52;;;;;;;;;;10548919;27;20130;-75
2023/04/16 22:13:40;;;;;;;;;;;;;;;;;;10543339;27;20048;-76
2023/04/16 22:18:44;;;;;;;2.22;1.10;;;;;;;;;;10549732;27;19926;-76
2023/04/16 22:23:48;;;;;;;1.85;1.10;;;;;;;;;;10548326;27;20126;-76
2023/04/16 22:28:50;;;;;;;1.55;1.00;;;;;;;;;;10559159;27;20028;-76
2023/04/16 22:33:53;;;;;;;2.00;0.75;;;;;;;;;;10549567;27;20409;-76
2023/04/16 22:38:57;;;;;;;0.70;0.60;;;;;;;;;;10559011;28;20039;-76
2023/04/16 22:44:00;;;;;;;1.52;1.05;;;;;;;;;;10551730;28;20638;-77
2023/04/16 22:49:03;;;;;;;2.25;1.02;;;;;;;;;;10549361;28;20043;-77
2023/04/16 22:54:07;;;;;;;0.77;0.63;;;;;;;;;;10524545;28;20065;-75
2023/04/16 22:59:10;;;;;;;3.03;1.30;;;;;;;;;;10539998;28;20420;-76
2023/04/16 23:04:15;;;;;;;2.45;1.00;;;;;;;;;;10547052;28;20044;-75
2023/04/16 23:09:21;;;;;;;0.90;0.50;;;;;;;;;;10549496;28;20051;-76
2023/04/16 23:14:25;;;;;;;0.32;0.32;;;;;;;;;;10549354;28;20438;-74
2023/04/16 23:19:28;;;;;;;1.00;0.80;;;;;;;;;;10525638;28;20048;-76
2023/04/16 23:24:31;;;;;;;1.58;1.05;;;;;;;;;;10536601;27;20549;-76
2023/04/16 23:29:40;;;;;;;1.80;1.05;;;;;;;;;;10564810;27;20549;-76
2023/04/16 23:34:43;;;;;;;0.95;0.95;;;;;;;;;;10542405;27;20043;-76
2023/04/16 23:39:48;;;;;;;1.00;0.80;;;;;;;;;;10559782;27;20093;-76
2023/04/16 23:44:51;;;;;;;1.98;1.00;;;;;;;;;;10559469;27;20476;-75
2023/04/16 23:49:54;;;;;;;1.65;1.20;;;;;;;;;;10558682;27;20024;-76
2023/04/16 23:54:59;;;;;;;1.88;0.90;;;;;;;;;;10557973;27;20112;-76
